createdAt,value
2018-07-07T00:00:47.560Z,2.90
2018-07-07T00:03:16.172Z,3.50
2018-07-07T00:05:50.400Z,3.20
2018-07-07T00:08:28.412Z,3.43
2018-07-07T00:10:57.908Z,3.63
2018-07-07T00:13:29.580Z,3.40
2018-07-07T00:15:57.630Z,3.80
2018-07-07T00:18:25.676Z,3.57
2018-07-07T00:20:53.714Z,3.77
2018-07-07T00:23:28.512Z,3.97
2018-07-07T00:25:56.529Z,3.93
2018-07-07T00:28:24.612Z,3.73
2018-07-07T00:30:58.880Z,4.37
2018-07-07T00:33:26.930Z,4.20
2018-07-07T00:35:55.026Z,4.30
2018-07-07T00:38:28.684Z,3.73
2018-07-07T00:41:00.015Z,4.50
2018-07-07T00:43:28.080Z,4.63
2018-07-07T00:45:56.097Z,4.03
2018-07-07T00:48:29.636Z,4.20
2018-07-07T00:50:59.040Z,4.77
2018-07-07T00:53:27.077Z,4.60
2018-07-07T00:55:59.074Z,4.00
2018-07-07T00:58:29.012Z,4.60
2018-07-07T01:00:57.061Z,5.23
2018-07-07T01:03:25.110Z,5.00
2018-07-07T01:05:53.185Z,5.20
2018-07-07T01:08:28.271Z,5.87
2018-07-07T01:10:56.323Z,5.87
2018-07-07T01:13:24.387Z,5.90
2018-07-07T01:15:58.386Z,5.77
2018-07-07T01:18:26.443Z,6.17
2018-07-07T01:21:00.681Z,5.53
2018-07-07T01:23:28.784Z,5.73
2018-07-07T01:25:58.761Z,6.87
2018-07-07T01:28:30.421Z,6.97
2018-07-07T01:30:59.258Z,5.27
2018-07-07T01:33:27.488Z,5.73
2018-07-07T01:35:55.512Z,5.90
2018-07-07T01:38:24.040Z,5.63
2018-07-07T01:40:52.097Z,5.43
2018-07-07T01:43:20.645Z,5.57
2018-07-07T01:45:59.007Z,6.30
2018-07-07T01:48:27.043Z,7.57
2018-07-07T01:50:55.063Z,6.90
2018-07-07T01:53:23.100Z,7.07
2018-07-07T01:55:58.662Z,7.77
2018-07-07T01:58:26.689Z,9.00
2018-07-07T02:00:54.760Z,8.10
2018-07-07T02:03:22.794Z,9.00
2018-07-07T02:05:50.656Z,6.80
2018-07-07T02:08:28.820Z,8.80
2018-07-07T02:11:00.024Z,9.80
2018-07-07T02:13:28.069Z,9.73
2018-07-07T02:15:59.991Z,10.73
2018-07-07T02:18:28.323Z,10.80
2018-07-07T02:20:59.453Z,10.47
2018-07-07T02:23:27.516Z,9.10
2018-07-07T02:25:58.712Z,9.60
2018-07-07T02:28:29.976Z,8.67
2018-07-07T02:30:58.824Z,10.60
2018-07-07T02:33:26.881Z,9.67
2018-07-07T02:35:54.924Z,10.63
2018-07-07T02:38:23.026Z,10.87
2018-07-07T02:40:51.162Z,9.93
2018-07-07T02:43:19.668Z,10.30
2018-07-07T02:45:48.976Z,11.20
2018-07-07T02:48:17.016Z,10.00
2018-07-07T02:50:50.758Z,10.40
2018-07-07T02:53:18.810Z,9.53
2018-07-07T02:55:46.844Z,8.87
2018-07-07T02:58:14.886Z,10.13
2018-07-07T03:00:43.423Z,9.17
2018-07-07T03:03:11.516Z,9.00
2018-07-07T03:05:49.224Z,10.87
2018-07-07T03:08:17.598Z,10.30
2018-07-07T03:10:45.644Z,12.60
2018-07-07T03:13:20.946Z,11.70
2018-07-07T03:15:58.986Z,11.60
2018-07-07T03:18:27.518Z,11.20
2018-07-07T03:20:55.600Z,10.67
2018-07-07T03:23:29.428Z,10.67
2018-07-07T03:25:57.513Z,10.33
2018-07-07T03:28:25.628Z,10.10
2018-07-07T03:30:53.722Z,9.03
2018-07-07T03:33:28.913Z,9.27
2018-07-07T03:35:57.014Z,10.00
2018-07-07T03:38:25.547Z,8.93
2018-07-07T03:40:59.810Z,9.03
2018-07-07T03:43:27.950Z,8.93
2018-07-07T03:45:55.999Z,9.27
2018-07-07T03:48:30.091Z,7.80
2018-07-07T03:51:00.045Z,7.33
2018-07-07T03:53:29.429Z,7.13
2018-07-07T03:55:57.957Z,6.90
2018-07-07T03:58:26.026Z,6.40
2018-07-07T04:01:00.294Z,5.10
2018-07-07T04:03:29.606Z,5.10
2018-07-07T04:05:57.691Z,4.97
2018-07-07T04:08:28.918Z,4.30
2018-07-07T04:11:00.705Z,3.67
2018-07-07T04:13:28.766Z,4.00
2018-07-07T04:15:56.852Z,4.47
2018-07-07T04:18:32.853Z,4.00
2018-07-07T04:21:08.954Z,4.50
2018-07-07T04:23:37.093Z,4.30
2018-07-07T04:26:05.250Z,4.53
2018-07-07T04:28:39.685Z,4.37
2018-07-07T04:31:09.032Z,3.93
2018-07-07T04:33:40.643Z,4.93
2018-07-07T04:36:08.722Z,5.03
2018-07-07T04:38:36.812Z,4.43
2018-07-07T04:41:04.873Z,3.93
2018-07-07T04:43:33.448Z,4.27
2018-07-07T04:46:02.092Z,4.60
2018-07-07T04:48:39.839Z,4.73
2018-07-07T04:51:07.909Z,4.47
2018-07-07T04:53:36.287Z,4.10
2018-07-07T04:56:04.676Z,4.20
2018-07-07T04:58:38.448Z,3.93
2018-07-07T05:01:06.514Z,4.17
2018-07-07T05:03:41.053Z,4.20
2018-07-07T05:06:09.144Z,4.03
2018-07-07T05:08:37.256Z,4.90
2018-07-07T05:11:08.985Z,4.13
2018-07-07T05:13:38.972Z,3.77
2018-07-07T05:16:07.037Z,4.20
2018-07-07T05:18:40.882Z,3.70
2018-07-07T05:21:18.698Z,3.70
2018-07-07T05:23:50.133Z,3.60
2018-07-07T05:26:18.243Z,3.50
2018-07-07T05:28:50.208Z,3.30
2018-07-07T05:31:18.556Z,3.37
2018-07-07T05:33:46.636Z,2.93
2018-07-07T05:36:14.746Z,3.53
2018-07-07T05:38:48.880Z,3.10
2018-07-07T05:41:20.525Z,2.83
2018-07-07T05:43:49.072Z,3.03
2018-07-07T05:46:20.661Z,2.80
2018-07-07T05:48:48.704Z,3.37
2018-07-07T05:51:17.444Z,3.30
2018-07-07T05:53:45.564Z,3.33
2018-07-07T05:56:13.610Z,3.50
2018-07-07T05:58:41.674Z,3.20
2018-07-07T06:01:20.119Z,3.00
2018-07-07T06:03:48.177Z,3.20
2018-07-07T06:06:16.252Z,3.10
2018-07-07T06:08:44.300Z,2.53
2018-07-07T06:11:18.288Z,3.20
2018-07-07T06:13:46.666Z,3.17
2018-07-07T06:16:20.859Z,3.17
2018-07-07T06:18:48.976Z,2.70
2018-07-07T06:21:17.057Z,2.87
2018-07-07T06:23:50.953Z,3.03
2018-07-07T06:26:19.019Z,2.87
2018-07-07T06:28:48.986Z,3.40
2018-07-07T06:31:18.886Z,2.60
2018-07-07T06:33:46.948Z,2.80
2018-07-07T06:36:15.160Z,3.10
2018-07-07T06:38:43.552Z,2.80
2018-07-07T06:41:11.663Z,2.57
2018-07-07T06:43:39.753Z,3.00
2018-07-07T06:46:09.780Z,3.50
2018-07-07T06:48:39.573Z,2.77
2018-07-07T06:51:07.747Z,2.73
2018-07-07T06:53:35.871Z,2.72
2018-07-07T06:56:04.031Z,2.92
2018-07-07T06:58:38.880Z,2.58
2018-07-07T07:01:07.013Z,2.70
2018-07-07T07:03:35.150Z,2.92
2018-07-07T07:06:03.164Z,2.92
2018-07-07T07:08:38.595Z,2.55
2018-07-07T07:11:06.695Z,2.40
2018-07-07T07:13:34.815Z,2.95
2018-07-07T07:16:09.143Z,2.80
2018-07-07T07:18:37.265Z,2.72
2018-07-07T07:21:11.012Z,2.60
2018-07-07T07:23:48.796Z,2.72
2018-07-07T07:26:16.901Z,2.95
2018-07-07T07:28:53.225Z,2.72
2018-07-07T07:31:29.065Z,2.55
2018-07-07T07:34:00.412Z,2.70
2018-07-07T07:36:47.179Z,3.25
2018-07-07T07:39:19.003Z,2.55
2018-07-07T07:41:47.083Z,2.77
2018-07-07T07:44:19.033Z,2.50
2018-07-07T07:46:48.865Z,2.67
2018-07-07T07:49:20.676Z,3.02
2018-07-07T07:51:48.833Z,2.37
2018-07-07T07:54:16.956Z,2.27
2018-07-07T07:56:45.101Z,2.08
2018-07-07T07:59:13.214Z,1.92
2018-07-07T08:01:41.313Z,2.67
2018-07-07T08:04:19.190Z,2.25
2018-07-07T08:06:47.239Z,2.15
2018-07-07T08:09:19.116Z,2.12
2018-07-07T08:11:47.253Z,2.10
2018-07-07T08:14:15.381Z,2.58
2018-07-07T08:16:49.704Z,2.67
2018-07-07T08:19:17.823Z,1.92
2018-07-07T08:21:45.925Z,2.00
2018-07-07T08:24:14.013Z,2.70
2018-07-07T08:26:42.137Z,2.83
2018-07-07T08:29:10.225Z,2.62
2018-07-07T08:31:38.376Z,2.30
2018-07-07T08:34:06.546Z,2.52
2018-07-07T08:36:40.785Z,2.10
2018-07-07T08:39:08.880Z,2.42
2018-07-07T08:41:40.815Z,2.25
2018-07-07T08:44:08.870Z,2.08
2018-07-07T08:46:40.508Z,1.92
2018-07-07T08:49:09.624Z,2.60
2018-07-07T08:51:37.756Z,1.92
2018-07-07T08:54:06.003Z,1.87
2018-07-07T08:56:40.558Z,2.20
2018-07-07T08:59:09.845Z,1.75
2018-07-07T09:01:37.933Z,1.98
2018-07-07T09:04:06.086Z,1.65
2018-07-07T09:06:34.206Z,1.92
2018-07-07T09:09:03.021Z,1.82
2018-07-07T09:11:31.114Z,1.70
2018-07-07T09:14:09.790Z,1.55
2018-07-07T09:16:37.929Z,1.95
2018-07-07T09:19:06.081Z,1.90
2018-07-07T09:21:34.197Z,1.85
2018-07-07T09:24:02.293Z,1.90
2018-07-07T09:26:38.821Z,2.10
2018-07-07T09:29:09.927Z,1.62
2018-07-07T09:31:38.033Z,2.25
2018-07-07T09:34:09.271Z,2.30
2018-07-07T09:36:39.050Z,2.08
2018-07-07T09:39:07.748Z,1.57
2018-07-07T09:41:35.843Z,1.77
2018-07-07T09:44:10.548Z,1.80
2018-07-07T09:46:39.464Z,1.65
2018-07-07T09:49:07.577Z,1.82
2018-07-07T09:51:35.686Z,1.67
2018-07-07T09:54:03.827Z,2.00
2018-07-07T09:56:31.928Z,1.70
2018-07-07T09:59:09.718Z,1.65
2018-07-07T10:01:37.840Z,1.62
2018-07-07T10:04:05.978Z,2.08
2018-07-07T10:06:40.022Z,1.37
2018-07-07T10:09:08.187Z,1.60
2018-07-07T10:11:39.984Z,1.50
2018-07-07T10:14:08.177Z,1.57
2018-07-07T10:16:51.001Z,1.42
2018-07-07T10:19:19.234Z,1.62
2018-07-07T10:21:47.422Z,1.07
2018-07-07T10:24:15.930Z,1.42
2018-07-07T10:26:44.189Z,1.25
2018-07-07T10:29:12.262Z,1.47
2018-07-07T10:31:48.788Z,1.20
2018-07-07T10:34:16.971Z,1.20
2018-07-07T10:36:45.117Z,1.30
2018-07-07T10:39:19.208Z,2.00
2018-07-07T10:41:47.387Z,1.60
2018-07-07T10:44:19.436Z,1.60
2018-07-07T10:46:48.848Z,1.10
2018-07-07T10:49:17.089Z,1.15
2018-07-07T10:51:51.062Z,1.47
2018-07-07T10:54:19.324Z,1.75
2018-07-07T10:56:48.944Z,1.55
2018-07-07T10:59:17.115Z,1.92
2018-07-07T11:01:45.255Z,1.57
2018-07-07T11:04:13.447Z,1.60
2018-07-07T11:06:41.618Z,1.25
2018-07-07T11:09:09.812Z,1.67
2018-07-07T11:11:37.959Z,1.82
2018-07-07T11:14:06.130Z,1.77
2018-07-07T11:16:40.096Z,1.80
2018-07-07T11:19:08.271Z,1.47
2018-07-07T11:21:36.370Z,1.47
2018-07-07T11:24:10.711Z,1.55
2018-07-07T11:26:48.338Z,1.32
2018-07-07T11:29:16.417Z,1.30
2018-07-07T11:31:50.008Z,1.32
2018-07-07T11:34:18.137Z,1.45
2018-07-07T11:36:49.912Z,1.42
2018-07-07T11:39:19.556Z,1.40
2018-07-07T11:41:49.612Z,1.25
2018-07-07T11:44:17.745Z,1.72
2018-07-07T11:46:48.969Z,1.40
2018-07-07T11:49:17.065Z,1.65
2018-07-07T11:51:45.158Z,1.20
2018-07-07T11:54:13.498Z,1.50
2018-07-07T11:56:49.192Z,1.55
2018-07-07T11:59:17.269Z,1.52
2018-07-07T12:01:45.494Z,1.40
2018-07-07T12:04:13.598Z,1.50
2018-07-07T12:06:48.827Z,1.50
2018-07-07T12:09:17.000Z,1.60
2018-07-07T12:11:48.948Z,1.62
2018-07-07T12:14:20.846Z,1.50
2018-07-07T12:16:49.074Z,1.50
2018-07-07T12:19:20.384Z,1.50
2018-07-07T12:21:49.168Z,1.30
2018-07-07T12:24:17.392Z,1.37
2018-07-07T12:26:51.060Z,1.52
2018-07-07T12:29:19.210Z,1.40
2018-07-07T12:31:47.300Z,1.60
2018-07-07T12:34:19.208Z,1.37
2018-07-07T12:36:49.031Z,1.30
2018-07-07T12:39:19.182Z,1.75
2018-07-07T12:41:47.363Z,1.75
2018-07-07T12:44:15.482Z,1.40
2018-07-07T12:46:43.691Z,1.75
2018-07-07T12:49:18.738Z,1.67
2018-07-07T12:51:46.811Z,1.80
2018-07-07T12:54:19.018Z,1.55
2018-07-07T12:56:47.137Z,1.52
2018-07-07T12:59:15.256Z,1.70
2018-07-07T13:01:49.715Z,1.47
2018-07-07T13:04:18.876Z,1.42
2018-07-07T13:06:50.564Z,2.10
2018-07-07T13:09:18.701Z,1.72
2018-07-07T13:11:46.971Z,1.30
2018-07-07T13:14:15.074Z,1.50
2018-07-07T13:16:49.166Z,1.80
2018-07-07T13:19:17.273Z,1.50
2018-07-07T13:21:45.434Z,1.67
2018-07-07T13:24:19.360Z,1.22
2018-07-07T13:26:50.636Z,1.37
2018-07-07T13:29:18.917Z,1.35
2018-07-07T13:31:47.156Z,1.70
2018-07-07T13:34:15.236Z,1.72
2018-07-07T13:36:43.362Z,1.40
2018-07-07T13:39:18.470Z,1.47
2018-07-07T13:41:46.586Z,1.60
2018-07-07T13:44:21.077Z,1.52
2018-07-07T13:46:49.292Z,1.70
2018-07-07T13:49:19.270Z,1.47
2018-07-07T13:51:47.402Z,1.45
2018-07-07T13:54:19.849Z,1.10
2018-07-07T13:56:48.034Z,1.40
2018-07-07T13:59:16.167Z,1.30
2018-07-07T14:01:44.269Z,1.32
2018-07-07T14:04:19.321Z,1.40
2018-07-07T14:06:50.018Z,1.70
2018-07-07T14:09:18.984Z,1.50
2018-07-07T14:11:47.103Z,2.20
2018-07-07T14:14:15.322Z,1.95
2018-07-07T14:16:43.453Z,1.60
2018-07-07T14:19:11.697Z,1.30
2018-07-07T14:21:39.870Z,1.42
2018-07-07T14:24:09.311Z,1.55
2018-07-07T14:26:38.420Z,1.50
2018-07-07T14:29:06.589Z,1.80
2018-07-07T14:31:35.036Z,1.72
2018-07-07T14:34:03.253Z,1.62
2018-07-07T14:36:38.869Z,1.75
2018-07-07T14:39:07.107Z,1.60
2018-07-07T14:41:35.653Z,1.70
2018-07-07T14:44:09.392Z,1.50
2018-07-07T14:46:37.474Z,1.55
2018-07-07T14:49:06.060Z,1.47
2018-07-07T14:51:40.445Z,1.37
2018-07-07T14:54:09.266Z,1.37
2018-07-07T14:56:37.368Z,1.35
2018-07-07T14:59:05.500Z,1.50
2018-07-07T15:01:39.554Z,1.70
2018-07-07T15:04:07.674Z,1.32
2018-07-07T15:06:40.230Z,1.40
2018-07-07T15:09:09.404Z,1.40
2018-07-07T15:11:39.264Z,1.27
2018-07-07T15:14:08.799Z,1.45
2018-07-07T15:16:37.066Z,1.05
2018-07-07T15:19:09.528Z,1.57
2018-07-07T15:27:26.084Z,1.50
2018-07-07T15:29:54.344Z,1.40
2018-07-07T15:32:24.996Z,1.90
2018-07-07T15:34:54.707Z,1.60
2018-07-07T15:37:23.145Z,1.40
2018-07-07T15:39:51.626Z,1.42
2018-07-07T15:42:29.518Z,1.70
2018-07-07T15:44:57.691Z,1.42
2018-07-07T15:47:29.540Z,1.72
2018-07-07T15:49:58.065Z,1.52
2018-07-07T15:52:26.335Z,1.50
2018-07-07T15:54:55.412Z,1.62
2018-07-07T15:57:23.689Z,1.37
2018-07-07T15:59:51.851Z,1.75
2018-07-07T16:02:30.264Z,1.75
2018-07-07T16:04:58.968Z,1.70
2018-07-07T16:07:27.260Z,1.95
2018-07-07T16:09:55.907Z,2.25
2018-07-07T16:12:23.952Z,1.30
2018-07-07T16:14:52.497Z,1.70
2018-07-07T16:17:28.549Z,1.70
2018-07-07T16:19:56.861Z,1.82
2018-07-07T16:22:31.252Z,1.60
2018-07-07T16:24:59.404Z,1.90
2018-07-07T16:27:31.167Z,2.12
2018-07-07T16:30:09.316Z,1.90
2018-07-07T16:32:37.931Z,1.82
2018-07-07T16:35:09.442Z,1.40
2018-07-07T16:37:37.604Z,1.77
2018-07-07T16:40:05.800Z,1.55
2018-07-07T16:42:39.455Z,1.57
2018-07-07T16:45:07.899Z,1.87
2018-07-07T16:47:39.491Z,1.50
2018-07-07T16:50:07.621Z,1.47
2018-07-07T16:52:39.600Z,1.70
2018-07-07T16:55:07.766Z,1.65
2018-07-07T16:57:39.585Z,1.90
2018-07-07T17:00:09.537Z,1.60
2018-07-07T17:02:39.523Z,1.47
2018-07-07T17:05:07.666Z,1.57
2018-07-07T17:07:41.757Z,1.67
2018-07-07T17:10:20.949Z,1.60
2018-07-07T17:12:59.124Z,1.85
2018-07-07T17:15:27.550Z,1.55
2018-07-07T17:17:55.805Z,1.80
2018-07-07T17:20:23.991Z,1.82
2018-07-07T17:22:52.309Z,2.27
2018-07-07T17:25:20.461Z,1.87
2018-07-07T17:27:49.729Z,1.70
2018-07-07T17:30:19.782Z,1.60
2018-07-07T17:32:50.151Z,2.00
2018-07-07T17:35:19.160Z,2.47
2018-07-07T17:37:47.922Z,1.97
2018-07-07T17:40:16.088Z,1.70
2018-07-07T17:42:44.197Z,1.90
2018-07-07T17:45:12.442Z,1.80
2018-07-07T17:47:48.941Z,1.60
2018-07-07T17:50:17.149Z,1.37
2018-07-07T17:52:51.413Z,2.00
2018-07-07T17:55:19.618Z,2.17
2018-07-07T17:57:47.831Z,2.03
2018-07-07T18:00:16.725Z,2.27
2018-07-07T18:02:44.829Z,1.90
2018-07-07T18:05:12.972Z,2.00
2018-07-07T18:07:49.161Z,1.80
2018-07-07T18:10:21.151Z,1.90
2018-07-07T18:12:49.376Z,1.82
2018-07-07T18:15:17.867Z,2.00
2018-07-07T18:17:49.614Z,2.20
2018-07-07T18:20:17.810Z,1.52
2018-07-07T18:22:49.993Z,1.60
2018-07-07T18:25:18.125Z,1.80
2018-07-07T18:27:46.904Z,1.85
2018-07-07T18:30:15.108Z,1.72
2018-07-07T18:32:43.230Z,1.60
2018-07-07T18:35:19.479Z,2.08
2018-07-07T18:37:48.156Z,1.70
2018-07-07T18:40:19.913Z,1.90
2018-07-07T18:42:48.068Z,2.05
2018-07-07T18:45:20.153Z,1.85
2018-07-07T18:47:48.301Z,2.33
2018-07-07T18:50:19.684Z,2.10
2018-07-07T18:52:49.870Z,2.00
2018-07-07T18:55:20.968Z,1.90
2018-07-07T18:57:49.098Z,1.70
2018-07-07T19:00:19.124Z,2.07
2018-07-07T19:02:50.237Z,3.80
2018-07-07T19:05:18.757Z,2.37
2018-07-07T19:07:46.893Z,2.03
2018-07-07T19:10:20.985Z,2.43
2018-07-07T19:12:58.784Z,1.60
2018-07-07T19:15:30.135Z,1.87
2018-07-07T19:17:59.515Z,2.20
2018-07-07T19:21:36.107Z,1.77
2018-07-07T19:24:09.605Z,2.00
2018-07-07T19:26:43.024Z,1.97
2018-07-07T19:29:19.178Z,2.20
2018-07-07T19:31:56.308Z,1.70
2018-07-07T19:34:31.114Z,1.97
2018-07-07T19:37:04.605Z,2.20
2018-07-07T19:39:32.862Z,1.80
2018-07-07T19:42:00.986Z,2.27
2018-07-07T19:44:39.337Z,1.83
2018-07-07T19:47:07.501Z,2.53
2018-07-07T19:49:39.496Z,1.97
2018-07-07T19:52:07.873Z,2.10
2018-07-07T19:54:35.936Z,2.00
2018-07-07T19:57:04.009Z,2.30
2018-07-07T19:59:32.496Z,2.10
2018-07-07T20:02:00.608Z,3.17
2018-07-07T20:04:29.832Z,2.60
2018-07-07T20:07:00.956Z,2.30
2018-07-07T20:09:39.405Z,2.03
2018-07-07T20:12:07.472Z,1.70
2018-07-07T20:14:35.615Z,2.20
2018-07-07T20:17:12.678Z,2.20
2018-07-07T20:20:58.500Z,2.00
2018-07-07T20:23:27.716Z,1.77
2018-07-07T20:26:00.753Z,2.00
2018-07-07T20:28:34.796Z,2.20
2018-07-07T20:31:02.797Z,2.00
2018-07-07T20:33:38.853Z,2.33
2018-07-07T20:36:06.919Z,1.97
2018-07-07T20:38:35.056Z,2.30
2018-07-07T20:41:08.960Z,2.10
2018-07-07T20:43:37.092Z,2.20
2018-07-07T20:46:08.770Z,2.10
2018-07-07T20:48:37.644Z,2.17
2018-07-07T20:51:09.210Z,2.20
2018-07-07T20:53:39.183Z,2.33
2018-07-07T20:56:09.043Z,3.00
2018-07-07T20:58:37.085Z,2.33
2018-07-07T21:01:11.236Z,2.07
2018-07-07T21:03:39.312Z,1.97
2018-07-07T21:06:10.608Z,1.93
2018-07-07T21:08:39.208Z,2.27
2018-07-07T21:11:10.503Z,2.27
2018-07-07T21:13:38.440Z,2.10
2018-07-07T21:16:06.515Z,2.17
2018-07-07T21:18:34.643Z,2.37
2018-07-07T21:21:02.681Z,2.10
2018-07-07T21:23:30.768Z,2.10
2018-07-07T21:25:59.232Z,2.17
2018-07-07T21:28:27.319Z,2.00
2018-07-07T21:31:01.476Z,1.90
2018-07-07T21:33:29.589Z,2.20
2018-07-07T21:35:57.769Z,2.00
2018-07-07T21:38:29.488Z,2.03
2018-07-07T21:40:58.110Z,2.47
2018-07-07T21:43:26.457Z,2.40
2018-07-07T21:45:54.523Z,2.13
2018-07-07T21:48:22.569Z,2.27
2018-07-07T21:50:58.615Z,2.27
2018-07-07T21:53:26.669Z,2.13
2018-07-07T21:55:54.794Z,2.30
2018-07-07T21:58:29.383Z,2.20
2018-07-07T22:01:10.727Z,2.37
2018-07-07T22:03:44.879Z,2.40
2018-07-07T22:06:17.274Z,2.07
2018-07-07T22:08:45.409Z,2.60
2018-07-07T22:11:19.724Z,1.90
2018-07-07T22:13:49.302Z,2.30
2018-07-07T22:16:17.346Z,2.37
2018-07-07T22:18:45.397Z,2.77
2018-07-07T22:21:24.724Z,2.60
2018-07-07T22:23:58.909Z,2.37
2018-07-07T22:26:26.972Z,2.63
2018-07-07T22:28:55.030Z,2.23
2018-07-07T22:31:28.787Z,2.20
2018-07-07T22:34:00.040Z,1.97
2018-07-07T22:36:34.315Z,3.00
2018-07-07T22:39:02.412Z,2.37
2018-07-07T22:41:45.794Z,2.27
2018-07-07T22:44:19.237Z,2.47
2018-07-07T22:46:47.322Z,2.23
2018-07-07T22:49:19.025Z,2.40
2018-07-07T22:51:47.147Z,2.17
2018-07-07T22:54:21.412Z,2.60
2018-07-07T22:56:49.460Z,2.50
2018-07-07T22:59:17.513Z,2.80
2018-07-07T23:01:45.590Z,2.70
2018-07-07T23:04:13.644Z,2.50
2018-07-07T23:06:48.503Z,2.83
2018-07-07T23:09:17.729Z,2.63
2018-07-07T23:11:49.190Z,2.70
2018-07-07T23:14:17.221Z,2.73
2018-07-07T23:16:45.304Z,2.60
2018-07-07T23:19:13.421Z,3.43
2018-07-07T23:21:49.308Z,3.10
2018-07-07T23:24:20.851Z,3.20
2018-07-07T23:26:49.242Z,2.93
2018-07-07T23:29:17.277Z,2.70
2018-07-07T23:31:49.366Z,2.90
2018-07-07T23:34:17.496Z,3.30
2018-07-07T23:36:51.125Z,2.80
2018-07-07T23:39:19.151Z,2.70
2018-07-07T23:41:48.997Z,2.73
2018-07-07T23:44:19.002Z,3.20
2018-07-07T23:46:47.105Z,3.10
2018-07-07T23:49:15.145Z,2.63
2018-07-07T23:51:43.174Z,2.97
2018-07-07T23:54:11.251Z,3.00
2018-07-07T23:56:49.332Z,2.73
2018-07-07T23:59:17.421Z,2.70
